Time;durP1;ratioP1;P1;durP2;ratioP2;P2;SDS_P1;SDS_P2;PMS_P1;PMS_P2;Temp;Humidity;BMP_temperature;BMP_pressure;BME280_temperature;BME280_humidity;BME280_pressure;Samples;Min_cycle;Max_cycle;Signal;HPM_P1;HPM_P2
2023/03/27 00:01:04;;;;;;;3.75;0.90;;;7.20;78.90;;;;;;5074582;28;20052;-74
2023/03/27 00:03:30;;;;;;;1.98;0.50;;;7.20;78.90;;;;;;5074625;28;20478;-74
2023/03/27 00:06:15;;;;;;;3.58;0.60;;;7.10;78.70;;;;;;5057977;28;20033;-74
2023/03/27 00:08:42;;;;;;;3.90;1.00;;;7.10;78.90;;;;;;5075521;28;20029;-74
2023/03/27 00:11:09;;;;;;;2.60;0.70;;;7.00;78.70;;;;;;5074386;28;20036;-74
2023/03/27 00:13:36;;;;;;;8.32;1.67;;;6.90;79.00;;;;;;5075349;28;20028;-74
2023/03/27 00:16:04;;;;;;;3.45;0.65;;;6.90;79.20;;;;;;5074310;28;20021;-74
2023/03/27 00:18:29;;;;;;;4.32;0.90;;;6.80;79.50;;;;;;5075283;28;20045;-74
2023/03/27 00:21:00;;;;;;;5.05;0.77;;;6.80;79.50;;;;;;5057430;28;20024;-74
2023/03/27 00:23:29;;;;;;;4.15;1.38;;;6.90;79.60;;;;;;5073842;28;20032;-74
2023/03/27 00:25:56;;;;;;;5.00;0.73;;;6.90;79.60;;;;;;5075032;28;20032;-74
2023/03/27 00:28:25;;;;;;;5.32;1.65;;;6.90;79.50;;;;;;5075099;28;20043;-73
2023/03/27 00:30:52;;;;;;;9.60;1.30;;;6.80;79.50;;;;;;5074140;28;20025;-74
2023/03/27 00:33:18;;;;;;;5.57;1.60;;;6.80;79.50;;;;;;5074001;28;20029;-74
2023/03/27 00:35:45;;;;;;;5.63;0.93;;;6.80;79.60;;;;;;5074651;28;20051;-74
2023/03/27 00:38:11;;;;;;;2.78;1.00;;;6.80;79.70;;;;;;5074925;28;20043;-74
2023/03/27 00:40:37;;;;;;;3.10;1.15;;;6.80;79.60;;;;;;5073834;28;20497;-74
2023/03/27 00:43:26;;;;;;;3.90;1.00;;;6.70;79.60;;;;;;5073893;28;20075;-73
2023/03/27 00:46:21;;;;;;;5.30;1.65;;;6.70;79.60;;;;;;5074625;28;20486;-73
2023/03/27 00:48:50;;;;;;;6.18;1.40;;;6.60;79.80;;;;;;5059854;28;20045;-74
2023/03/27 00:51:18;;;;;;;9.30;1.90;;;6.60;79.90;;;;;;5073714;28;20031;-74
2023/03/27 00:53:47;;;;;;;8.45;2.00;;;6.60;79.90;;;;;;5073559;28;20060;-74
2023/03/27 00:56:14;;;;;;;6.32;1.60;;;6.50;80.10;;;;;;5074569;28;20036;-74
2023/03/27 00:58:47;;;;;;;5.25;1.90;;;6.50;80.30;;;;;;5073673;28;20051;-74
2023/03/27 01:01:15;;;;;;;6.30;1.60;;;6.50;80.50;;;;;;5073367;28;20029;-74
2023/03/27 01:03:45;;;;;;;12.63;2.00;;;6.40;80.50;;;;;;5074412;28;20025;-74
2023/03/27 01:06:15;;;;;;;9.68;2.67;;;6.40;80.50;;;;;;5073316;28;20025;-74
2023/03/27 01:08:43;;;;;;;14.05;4.00;;;6.30;80.50;;;;;;5074318;28;20035;-74
2023/03/27 01:11:30;;;;;;;10.98;3.03;;;6.30;80.60;;;;;;5073311;28;20045;-74
2023/03/27 01:14:12;;;;;;;21.52;4.20;;;6.30;80.80;;;;;;5073200;28;20028;-74
2023/03/27 01:16:49;;;;;;;10.80;3.87;;;6.30;80.80;;;;;;5074217;28;20103;-73
2023/03/27 01:19:37;;;;;;;4.50;2.00;;;6.20;80.90;;;;;;5074294;28;20036;-73
2023/03/27 01:22:34;;;;;;;5.25;2.00;;;6.20;81.10;;;;;;5073003;28;20024;-73
2023/03/27 01:24:59;;;;;;;7.45;1.80;;;6.10;81.10;;;;;;5073889;28;20025;-73
2023/03/27 01:27:40;;;;;;;3.25;1.00;;;6.10;81.40;;;;;;5072891;28;20075;-74
2023/03/27 01:30:17;;;;;;;4.22;1.10;;;6.10;81.70;;;;;;5074064;28;20020;-74
2023/03/27 01:33:11;;;;;;;3.00;1.00;;;6.10;82.00;;;;;;5072963;28;20025;-74
2023/03/27 01:36:01;;;;;;;3.67;1.00;;;6.10;82.30;;;;;;5073070;28;20047;-74
2023/03/27 01:38:27;;;;;;;2.47;0.93;;;6.20;82.40;;;;;;5072729;28;20037;-74
2023/03/27 01:41:12;;;;;;;6.95;1.13;;;6.20;82.60;;;;;;5072569;28;20032;-74
2023/03/27 01:43:49;;;;;;;2.97;0.90;;;6.20;82.90;;;;;;5073696;28;20104;-74
2023/03/27 01:46:27;;;;;;;3.83;1.05;;;6.20;83.10;;;;;;5073707;28;20044;-74
2023/03/27 01:49:15;;;;;;;4.53;1.00;;;6.30;83.30;;;;;;5073671;28;20099;-74
2023/03/27 01:51:47;;;;;;;2.55;1.00;;;6.30;83.30;;;;;;5073583;28;20045;-74
2023/03/27 01:54:34;;;;;;;3.83;0.90;;;6.30;83.60;;;;;;5072678;28;20036;-74
2023/03/27 01:57:21;;;;;;;5.13;1.42;;;6.30;83.60;;;;;;5072504;28;20029;-74
2023/03/27 01:59:53;;;;;;;3.80;1.27;;;6.30;83.50;;;;;;5072474;28;20025;-74
2023/03/27 02:02:23;;;;;;;;;;;6.30;83.60;;;;;;5073793;28;20084;-74
2023/03/27 02:04:56;;;;;;;3.83;0.98;;;6.20;83.50;;;;;;5073442;28;19996;-74
2023/03/27 02:07:30;;;;;;;4.00;0.80;;;6.10;83.80;;;;;;5073347;28;20104;-73
2023/03/27 02:10:01;;;;;;;2.00;0.95;;;6.10;84.30;;;;;;5072317;28;20066;-74
2023/03/27 02:12:33;;;;;;;4.70;1.08;;;6.00;84.50;;;;;;5073281;28;20084;-73
2023/03/27 02:15:06;;;;;;;3.38;0.85;;;6.00;84.90;;;;;;5073230;28;20032;-74
2023/03/27 02:17:37;;;;;;;4.00;1.15;;;6.00;85.20;;;;;;5073281;28;20029;-73
2023/03/27 02:20:15;;;;;;;4.68;0.93;;;6.00;85.50;;;;;;5072211;28;20029;-73
2023/03/27 02:22:42;;;;;;;2.95;0.85;;;6.00;85.70;;;;;;5073126;28;20021;-74
2023/03/27 02:25:34;;;;;;;3.50;1.27;;;5.90;85.70;;;;;;5072155;28;20028;-74
2023/03/27 02:28:35;;;;;;;5.15;1.02;;;5.90;86.10;;;;;;5073078;28;20033;-74
2023/03/27 02:31:24;;;;;;;3.83;1.08;;;6.00;86.30;;;;;;5073105;28;20531;-74
2023/03/27 02:34:48;;;;;;;4.47;1.00;;;6.00;86.70;;;;;;5072195;28;20446;-74
2023/03/27 02:37:29;;;;;;;1.92;0.75;;;6.00;88.60;;;;;;4976110;28;20054;-73
2023/03/27 02:40:00;;;;;;;2.08;0.80;;;6.00;89.80;;;;;;4976101;28;20034;-74
2023/03/27 02:42:33;;;;;;;3.30;0.68;;;6.00;88.90;;;;;;5051872;28;20065;-73
2023/03/27 02:45:07;;;;;;;;;;;6.10;88.90;;;;;;5073988;28;20085;-74
2023/03/27 02:47:40;;;;;;;0.73;0.40;;;6.10;88.60;;;;;;5077080;28;19904;-74
2023/03/27 02:50:33;;;;;;;1.85;0.95;;;6.20;88.50;;;;;;5077159;28;20028;-74
2023/03/27 02:53:00;;;;;;;;;;;6.20;88.30;;;;;;5076658;28;20052;-74
2023/03/27 02:55:34;;;;;;;3.35;0.82;;;6.20;88.50;;;;;;5075907;28;19904;-74
2023/03/27 02:58:04;;;;;;;3.33;0.40;;;6.20;88.50;;;;;;5075855;28;20017;-74
2023/03/27 03:00:36;;;;;;;0.60;0.22;;;6.20;88.50;;;;;;5076776;28;20025;-74
2023/03/27 03:03:07;;;;;;;2.15;0.60;;;6.20;88.50;;;;;;5075778;28;20021;-74
2023/03/27 03:05:35;;;;;;;2.57;0.43;;;6.20;88.60;;;;;;5076694;28;20040;-74
2023/03/27 03:08:02;;;;;;;4.03;0.65;;;6.20;88.60;;;;;;5075708;28;20017;-74
2023/03/27 03:10:28;;;;;;;3.03;0.75;;;6.20;88.70;;;;;;5075548;28;20027;-74
2023/03/27 03:12:53;;;;;;;4.20;0.70;;;6.20;88.60;;;;;;5075662;28;20052;-74
2023/03/27 03:15:19;;;;;;;1.63;0.70;;;6.30;88.60;;;;;;5076478;28;20029;-74
2023/03/27 03:17:46;;;;;;;0.68;0.40;;;6.20;88.50;;;;;;5076428;28;20082;-74
2023/03/27 03:20:12;;;;;;;1.25;0.50;;;6.30;88.40;;;;;;5075368;28;20025;-73
2023/03/27 03:22:38;;;;;;;1.52;0.32;;;6.20;88.20;;;;;;5075374;28;20028;-74
2023/03/27 03:25:06;;;;;;;2.00;0.57;;;6.20;88.00;;;;;;5076323;28;20021;-74
2023/03/27 03:27:32;;;;;;;2.10;0.70;;;6.10;88.00;;;;;;5075277;28;20032;-74
2023/03/27 03:29:59;;;;;;;2.80;0.65;;;6.00;88.40;;;;;;5075262;28;20031;-74
2023/03/27 03:32:25;;;;;;;1.55;0.65;;;5.90;88.70;;;;;;5058607;28;20029;-74
2023/03/27 03:34:51;;;;;;;4.80;0.57;;;5.90;88.60;;;;;;5076134;28;20044;-73
2023/03/27 03:37:16;;;;;;;1.85;0.57;;;5.80;88.50;;;;;;5058299;28;20056;-74
2023/03/27 03:39:42;;;;;;;3.20;0.65;;;5.70;88.50;;;;;;5076022;28;20114;-74
2023/03/27 03:42:08;;;;;;;2.47;0.55;;;5.70;88.50;;;;;;5058358;28;20040;-74
2023/03/27 03:44:34;;;;;;;0.98;0.57;;;5.70;88.60;;;;;;5058387;28;20079;-74
2023/03/27 03:46:59;;;;;;;2.78;0.60;;;5.60;88.40;;;;;;5074867;28;20039;-74
2023/03/27 03:49:25;;;;;;;1.10;0.68;;;5.60;88.60;;;;;;5074831;28;20389;-74
2023/03/27 03:51:51;;;;;;;2.22;0.70;;;5.60;88.80;;;;;;5074831;28;20020;-73
2023/03/27 03:54:17;;;;;;;2.45;0.43;;;5.60;88.90;;;;;;5075752;28;20025;-74
2023/03/27 03:56:42;;;;;;;2.05;0.68;;;5.60;88.90;;;;;;5057455;28;20517;-74
2023/03/27 03:59:09;;;;;;;2.03;0.55;;;5.60;88.90;;;;;;5058103;28;20097;-74
2023/03/27 04:01:34;;;;;;;3.03;0.77;;;5.60;88.90;;;;;;5075560;28;20040;-74
2023/03/27 04:04:01;;;;;;;0.93;0.45;;;5.50;89.50;;;;;;5075531;28;20108;-74
2023/03/27 04:06:29;;;;;;;1.95;0.77;;;5.50;88.70;;;;;;5075558;28;20024;-74
2023/03/27 04:08:56;;;;;;;1.05;0.63;;;5.50;88.90;;;;;;5075425;28;20040;-73
2023/03/27 04:11:21;;;;;;;4.32;0.82;;;5.50;88.90;;;;;;5074520;28;20033;-74
2023/03/27 04:13:47;;;;;;;3.20;0.70;;;5.50;89.00;;;;;;5074430;28;20029;-74
2023/03/27 04:16:13;;;;;;;0.88;0.68;;;5.50;89.00;;;;;;5074346;28;20490;-73
2023/03/27 04:18:40;;;;;;;2.28;0.57;;;5.50;88.80;;;;;;5074348;28;20036;-73
2023/03/27 04:21:13;;;;;;;2.50;0.63;;;5.40;88.70;;;;;;5075189;28;20022;-74
2023/03/27 04:23:40;;;;;;;1.67;0.63;;;5.30;88.60;;;;;;5058467;28;20025;-74
2023/03/27 04:26:05;;;;;;;2.05;0.60;;;5.30;88.80;;;;;;5074220;28;20029;-74
2023/03/27 04:28:34;;;;;;;1.73;0.60;;;5.30;89.00;;;;;;5074081;28;20389;-74
2023/03/27 04:31:05;;;;;;;1.55;0.70;;;5.30;89.20;;;;;;5074110;28;20037;-74
2023/03/27 04:33:38;;;;;;;2.22;0.95;;;5.20;89.20;;;;;;5075017;28;20112;-74
2023/03/27 04:36:05;;;;;;;3.65;0.98;;;5.30;89.60;;;;;;5074887;28;20068;-73
2023/03/27 04:38:32;;;;;;;3.28;1.02;;;5.30;90.00;;;;;;5074947;28;20075;-74
2023/03/27 04:40:57;;;;;;;2.35;0.68;;;5.40;90.10;;;;;;5074750;28;20032;-73
2023/03/27 04:43:26;;;;;;;5.63;1.25;;;5.30;90.20;;;;;;5073810;28;20029;-74
2023/03/27 04:45:52;;;;;;;4.70;0.90;;;5.30;90.30;;;;;;5057736;28;20032;-74
2023/03/27 04:48:19;;;;;;;3.58;0.98;;;5.40;90.30;;;;;;5073791;28;20091;-73
2023/03/27 04:50:49;;;;;;;4.13;1.25;;;5.30;90.20;;;;;;5073665;28;20017;-73
2023/03/27 04:53:22;;;;;;;2.72;0.82;;;5.30;90.30;;;;;;5073707;28;20049;-74
2023/03/27 04:55:49;;;;;;;3.03;1.13;;;5.30;90.30;;;;;;5041813;28;20470;-74
2023/03/27 04:58:16;;;;;;;1.73;0.65;;;5.30;90.40;;;;;;5057178;28;20089;-74
2023/03/27 05:00:49;;;;;;;3.05;1.00;;;5.30;90.40;;;;;;5073426;28;20017;-73
2023/03/27 05:03:17;;;;;;;3.53;0.82;;;5.40;90.50;;;;;;5074615;28;20041;-74
2023/03/27 05:05:46;;;;;;;4.57;0.85;;;5.40;90.50;;;;;;5073457;28;20024;-73
2023/03/27 05:08:12;;;;;;;3.67;1.00;;;5.40;90.50;;;;;;5072857;28;20021;-73
2023/03/27 05:10:38;;;;;;;4.78;1.13;;;5.50;90.60;;;;;;5056426;28;20084;-74
2023/03/27 05:13:03;;;;;;;2.60;0.80;;;5.50;90.60;;;;;;5074251;28;20020;-74
2023/03/27 05:15:31;;;;;;;4.68;1.08;;;5.50;90.50;;;;;;5073273;28;20021;-73
2023/03/27 05:17:57;;;;;;;2.28;1.17;;;5.50;90.50;;;;;;5057005;28;20017;-74
2023/03/27 05:20:23;;;;;;;3.67;0.95;;;5.40;90.50;;;;;;5074043;28;20025;-74
2023/03/27 05:22:52;;;;;;;2.35;1.45;;;5.40;90.50;;;;;;5074022;28;20033;-73
2023/03/27 05:25:18;;;;;;;2.33;0.80;;;5.30;90.40;;;;;;5072972;28;20017;-74
2023/03/27 05:27:45;;;;;;;3.25;0.95;;;5.20;90.50;;;;;;5072885;28;20437;-74
2023/03/27 05:30:14;;;;;;;3.63;0.95;;;5.20;90.60;;;;;;5072941;28;20017;-73
2023/03/27 05:32:47;;;;;;;3.65;1.10;;;5.20;90.60;;;;;;5056397;28;20440;-74
2023/03/27 05:35:13;;;;;;;2.00;0.93;;;5.10;90.60;;;;;;5072877;28;20021;-74
2023/03/27 05:37:38;;;;;;;4.60;1.15;;;5.10;90.60;;;;;;5072731;28;20049;-74
2023/03/27 05:40:05;;;;;;;3.90;0.93;;;5.00;90.40;;;;;;5056089;28;20039;-74
2023/03/27 05:42:30;;;;;;;0.82;0.55;;;5.00;90.40;;;;;;5039620;28;20036;-74
2023/03/27 05:44:56;;;;;;;1.88;0.85;;;4.90;90.30;;;;;;5056095;28;20058;-74
2023/03/27 05:47:22;;;;;;;4.43;1.45;;;4.90;90.30;;;;;;5072599;28;20067;-74
2023/03/27 05:49:47;;;;;;;2.70;1.52;;;4.80;90.60;;;;;;5072809;28;20025;-74
2023/03/27 05:52:13;;;;;;;5.28;1.45;;;4.70;90.70;;;;;;5072471;28;20037;-74
2023/03/27 05:54:38;;;;;;;3.05;1.50;;;4.70;91.00;;;;;;5055952;28;20025;-73
2023/03/27 05:57:04;;;;;;;5.47;1.52;;;4.70;91.10;;;;;;5072539;28;20037;-74
2023/03/27 05:59:30;;;;;;;5.72;1.60;;;4.70;91.20;;;;;;5072601;28;20048;-73
2023/03/27 06:01:57;;;;;;;4.60;1.75;;;4.60;91.20;;;;;;5055866;28;20485;-74
2023/03/27 06:04:23;;;;;;;5.60;2.33;;;4.60;91.30;;;;;;5072495;28;20020;-74
2023/03/27 06:06:48;;;;;;;4.03;1.40;;;4.60;91.30;;;;;;5073316;28;20025;-73
2023/03/27 06:09:14;;;;;;;2.70;1.25;;;4.60;91.40;;;;;;5055662;28;20078;-74
2023/03/27 06:11:40;;;;;;;3.95;1.27;;;4.60;91.50;;;;;;5072159;28;20026;-73
2023/03/27 06:14:06;;;;;;;2.15;1.20;;;4.60;91.90;;;;;;5072388;28;20029;-74
2023/03/27 06:16:31;;;;;;;5.55;1.33;;;4.60;91.60;;;;;;5072378;28;20377;-74
2023/03/27 06:18:57;;;;;;;2.33;1.42;;;4.60;91.70;;;;;;5055538;28;20075;-73
2023/03/27 06:21:23;;;;;;;3.53;1.20;;;4.60;91.90;;;;;;5071831;28;20456;-74
2023/03/27 06:23:49;;;;;;;5.75;1.40;;;4.60;92.00;;;;;;5072209;28;20080;-74
2023/03/27 06:26:14;;;;;;;3.38;1.27;;;4.60;92.00;;;;;;5055412;28;20032;-73
2023/03/27 06:28:40;;;;;;;8.65;1.48;;;4.70;92.00;;;;;;5072134;28;20029;-73
2023/03/27 06:31:07;;;;;;;6.43;1.30;;;4.80;92.10;;;;;;5072105;28;20033;-73
2023/03/27 06:33:33;;;;;;;4.38;1.25;;;4.80;92.10;;;;;;5073093;28;20025;-74
2023/03/27 06:36:00;;;;;;;4.95;1.40;;;4.80;92.10;;;;;;5071952;28;20029;-74
2023/03/27 06:38:28;;;;;;;4.38;1.33;;;4.80;92.10;;;;;;5072110;28;20093;-73
2023/03/27 06:40:54;;;;;;;5.28;1.05;;;4.90;92.10;;;;;;5072932;28;20025;-73
2023/03/27 06:43:21;;;;;;;2.78;1.02;;;5.00;92.20;;;;;;5072968;28;20025;-73
2023/03/27 06:45:48;;;;;;;2.50;1.05;;;5.00;92.30;;;;;;5039128;28;20563;-74
2023/03/27 06:48:15;;;;;;;3.70;1.25;;;5.10;92.40;;;;;;5071853;28;20040;-74
2023/03/27 06:50:42;;;;;;;6.35;1.60;;;5.10;92.50;;;;;;5071913;28;20051;-73
2023/03/27 06:53:10;;;;;;;4.13;1.42;;;5.10;92.60;;;;;;5038987;28;20036;-73
2023/03/27 06:55:36;;;;;;;3.97;1.60;;;5.20;92.50;;;;;;5071823;28;20088;-74
2023/03/27 06:58:02;;;;;;;6.57;1.60;;;5.30;92.50;;;;;;5071802;28;20025;-75
2023/03/27 07:00:33;;;;;;;3.13;1.30;;;5.30;92.40;;;;;;5071989;28;20013;-75
2023/03/27 07:03:01;;;;;;;3.95;1.30;;;5.30;92.40;;;;;;5072775;28;20025;-75
2023/03/27 07:05:31;;;;;;;2.63;0.88;;;5.20;92.40;;;;;;5071746;28;20092;-75
2023/03/27 07:07:56;;;;;;;3.03;1.08;;;5.20;92.50;;;;;;5071787;28;20093;-75
2023/03/27 07:10:24;;;;;;;3.50;1.00;;;5.30;92.40;;;;;;5071883;28;20033;-75
2023/03/27 07:12:53;;;;;;;4.30;1.35;;;5.30;92.50;;;;;;5071731;28;20021;-75
2023/03/27 07:15:19;;;;;;;2.70;1.05;;;5.30;92.50;;;;;;5055207;28;20025;-75
2023/03/27 07:18:11;;;;;;;1.85;1.00;;;5.30;92.70;;;;;;5071612;28;20032;-76
2023/03/27 07:20:38;;;;;;;5.55;1.20;;;5.30;92.60;;;;;;5068843;28;20096;-75
2023/03/27 07:23:03;;;;;;;4.90;1.15;;;5.30;92.70;;;;;;5072564;28;20036;-75
2023/03/27 07:25:37;;;;;;;3.15;1.05;;;5.40;92.70;;;;;;5054902;28;20029;-75
2023/03/27 07:28:08;;;;;;;3.15;0.95;;;5.40;93.20;;;;;;5071581;28;20060;-75
2023/03/27 07:30:35;;;;;;;1.45;0.90;;;5.50;92.80;;;;;;5071533;28;20028;-76
2023/03/27 07:33:02;;;;;;;4.82;1.30;;;5.50;92.90;;;;;;5074636;28;20056;-76
2023/03/27 07:35:28;;;;;;;4.10;1.20;;;5.50;92.90;;;;;;5058579;28;20036;-76
2023/03/27 07:37:54;;;;;;;1.92;1.02;;;5.60;92.70;;;;;;5075944;28;20040;-76
2023/03/27 07:40:25;;;;;;;2.58;1.00;;;5.70;92.80;;;;;;5076023;28;20414;-75
2023/03/27 07:42:52;;;;;;;3.75;1.13;;;5.70;92.70;;;;;;5075063;28;20478;-75
2023/03/27 07:45:19;;;;;;;5.13;1.20;;;5.80;92.40;;;;;;5058415;28;20025;-75
2023/03/27 07:47:45;;;;;;;3.75;0.90;;;5.90;92.50;;;;;;5041972;28;20025;-76
2023/03/27 07:50:13;;;;;;;3.92;1.20;;;6.00;92.40;;;;;;5074837;28;20041;-75
2023/03/27 07:52:39;;;;;;;3.20;1.23;;;6.10;91.80;;;;;;5075688;28;20089;-75
2023/03/27 07:55:06;;;;;;;2.47;1.15;;;6.10;92.00;;;;;;5074879;28;20035;-75
2023/03/27 07:57:37;;;;;;;4.88;1.05;;;6.20;91.80;;;;;;5074916;28;20036;-75
2023/03/27 08:00:06;;;;;;;5.47;1.00;;;6.20;91.50;;;;;;5074727;28;20031;-75
2023/03/27 08:02:31;;;;;;;6.38;2.08;;;6.30;91.20;;;;;;5075607;28;20021;-75
2023/03/27 08:04:57;;;;;;;4.50;1.15;;;6.40;91.20;;;;;;5075586;28;20044;-75
2023/03/27 08:07:23;;;;;;;5.57;1.00;;;6.40;90.70;;;;;;5057840;28;20127;-76
2023/03/27 08:09:49;;;;;;;5.00;1.10;;;6.40;90.50;;;;;;5074569;28;20017;-75
2023/03/27 08:12:15;;;;;;;1.75;0.70;;;6.50;90.50;;;;;;5074442;28;20048;-75
2023/03/27 08:14:40;;;;;;;5.22;0.98;;;6.60;88.40;;;;;;5075365;28;20029;-75
2023/03/27 08:17:06;;;;;;;3.00;0.77;;;6.60;87.40;;;;;;5057638;28;20036;-75
2023/03/27 08:19:32;;;;;;;3.35;0.82;;;6.60;87.50;;;;;;5074502;28;20044;-75
2023/03/27 08:21:58;;;;;;;3.67;1.08;;;6.60;87.70;;;;;;5075190;28;20047;-75
2023/03/27 08:24:23;;;;;;;3.47;0.93;;;6.70;87.90;;;;;;5075222;28;20041;-75
2023/03/27 08:26:49;;;;;;;2.90;0.63;;;6.70;87.40;;;;;;5040989;28;20021;-75
2023/03/27 08:29:15;;;;;;;5.10;1.00;;;6.80;88.00;;;;;;5074209;28;20080;-75
2023/03/27 08:31:42;;;;;;;3.33;1.20;;;6.90;87.50;;;;;;5074229;28;20049;-75
2023/03/27 08:34:08;;;;;;;3.63;0.85;;;7.00;86.70;;;;;;5057733;28;20025;-75
2023/03/27 08:36:33;;;;;;;2.35;0.70;;;7.20;86.80;;;;;;5073954;28;20048;-75
2023/03/27 08:39:01;;;;;;;2.28;0.80;;;7.30;87.50;;;;;;5073948;28;20486;-75
2023/03/27 08:41:32;;;;;;;1.50;0.55;;;7.50;85.40;;;;;;5073927;28;20052;-74
2023/03/27 08:44:02;;;;;;;6.72;0.95;;;7.70;85.90;;;;;;5073699;28;20027;-75
2023/03/27 08:47:10;;;;;;;1.83;0.57;;;7.80;84.90;;;;;;5074844;28;20021;-75
2023/03/27 08:49:41;;;;;;;3.22;0.60;;;7.90;83.60;;;;;;5074326;28;20029;-75
2023/03/27 08:52:14;;;;;;;2.17;0.60;;;7.90;83.40;;;;;;5074755;28;20029;-75
2023/03/27 08:54:41;;;;;;;;;;;7.80;82.90;;;;;;5075236;28;20039;-75
2023/03/27 08:57:21;;;;;;;1.63;0.80;;;7.80;81.20;;;;;;5073595;28;19931;-75
2023/03/27 08:59:48;;;;;;;5.22;0.80;;;7.80;82.60;;;;;;5074546;28;20029;-76
2023/03/27 09:02:21;;;;;;;1.35;0.40;;;7.80;83.40;;;;;;5073489;28;20024;-75
2023/03/27 09:04:54;;;;;;;;;;;7.90;84.90;;;;;;5073823;28;20040;-75
2023/03/27 09:07:42;;;;;;;1.48;0.55;;;7.90;82.10;;;;;;5073481;28;19905;-75
2023/03/27 09:10:30;;;;;;;3.03;0.80;;;7.80;81.70;;;;;;5073377;28;20036;-75
2023/03/27 09:13:17;;;;;;;0.55;0.30;;;8.00;83.40;;;;;;5074352;28;20021;-75
2023/03/27 09:15:54;;;;;;;2.75;0.43;;;8.20;83.90;;;;;;5073287;28;20025;-75
2023/03/27 09:18:46;;;;;;;2.78;0.50;;;8.20;80.00;;;;;;5073210;28;20040;-75
2023/03/27 09:21:56;;;;;;;1.23;0.40;;;8.20;79.40;;;;;;5073082;28;20022;-75
2023/03/27 09:24:37;;;;;;;6.28;0.65;;;8.30;80.40;;;;;;5073054;28;20055;-75
2023/03/27 09:27:32;;;;;;;1.77;0.70;;;8.40;78.50;;;;;;5073000;28;20032;-75
2023/03/27 09:30:11;;;;;;;3.10;0.82;;;8.50;78.30;;;;;;5072919;28;20470;-75
2023/03/27 09:32:38;;;;;;;4.90;0.52;;;8.60;78.20;;;;;;5072991;28;20025;-75
2023/03/27 09:35:04;;;;;;;2.20;0.70;;;8.70;78.20;;;;;;5056398;28;20049;-75
2023/03/27 09:37:30;;;;;;;3.20;0.57;;;8.90;76.80;;;;;;5056152;28;20106;-75
2023/03/27 09:39:59;;;;;;;4.75;0.50;;;8.90;76.80;;;;;;5073766;28;20021;-75
2023/03/27 09:42:32;;;;;;;2.38;0.30;;;9.10;78.40;;;;;;5073720;28;20116;-75
2023/03/27 09:45:02;;;;;;;2.35;0.50;;;9.00;75.50;;;;;;5073737;28;20028;-75
2023/03/27 09:47:34;;;;;;;1.42;0.70;;;9.00;76.70;;;;;;5072675;28;20017;-76
2023/03/27 09:50:18;;;;;;;2.00;0.30;;;9.00;77.50;;;;;;5073654;28;20025;-75
2023/03/27 09:52:44;;;;;;;2.17;0.50;;;9.00;76.50;;;;;;5073617;28;20104;-75
2023/03/27 09:55:44;;;;;;;1.40;0.60;;;9.00;76.00;;;;;;5055563;28;20062;-75
2023/03/27 09:58:17;;;;;;;1.95;0.30;;;9.00;74.40;;;;;;5073532;28;20025;-75
2023/03/27 10:00:43;;;;;;;0.70;0.43;;;8.90;75.90;;;;;;5072424;28;20059;-75
2023/03/27 10:03:19;;;;;;;0.47;0.20;;;8.90;75.60;;;;;;5055900;28;20051;-75
2023/03/27 10:05:45;;;;;;;1.10;0.20;;;8.80;74.00;;;;;;5072448;28;20025;-75
2023/03/27 10:08:24;;;;;;;1.08;0.22;;;8.90;74.40;;;;;;5072326;28;20024;-75
2023/03/27 10:10:57;;;;;;;0.57;0.28;;;9.10;75.10;;;;;;5072272;28;20025;-75
2023/03/27 10:13:26;;;;;;;1.27;0.50;;;9.30;75.60;;;;;;5073307;28;20088;-76
2023/03/27 10:15:59;;;;;;;2.40;0.32;;;9.60;75.70;;;;;;5073250;28;20025;-75
2023/03/27 10:18:27;;;;;;;3.13;0.60;;;9.70;72.00;;;;;;5073273;28;20109;-75
2023/03/27 10:21:00;;;;;;;2.03;0.38;;;9.60;70.70;;;;;;5073245;28;20013;-75
2023/03/27 10:23:43;;;;;;;1.55;0.63;;;9.50;71.90;;;;;;5072235;28;20021;-75
2023/03/27 10:26:12;;;;;;;1.80;0.38;;;9.50;72.30;;;;;;5072101;28;20039;-75
2023/03/27 10:28:45;;;;;;;2.28;0.25;;;9.40;71.10;;;;;;5073082;28;20017;-75
2023/03/27 10:31:31;;;;;;;0.75;0.28;;;9.50;70.40;;;;;;5073199;28;20021;-75
2023/03/27 10:34:02;;;;;;;1.27;0.30;;;9.60;67.90;;;;;;5073109;28;20029;-75
2023/03/27 10:36:32;;;;;;;0.55;0.30;;;9.70;68.00;;;;;;5072810;28;20079;-75
2023/03/27 10:39:06;;;;;;;4.57;0.55;;;9.80;68.90;;;;;;5073083;28;20060;-75
2023/03/27 10:41:34;;;;;;;2.72;0.45;;;9.80;68.30;;;;;;5073091;28;20021;-75
2023/03/27 10:44:03;;;;;;;5.30;0.57;;;9.90;67.50;;;;;;5072992;28;20096;-75
2023/03/27 10:46:29;;;;;;;1.00;0.30;;;9.80;67.50;;;;;;5071961;28;20027;-75
2023/03/27 10:49:10;;;;;;;1.42;0.35;;;9.60;71.10;;;;;;5038996;28;20032;-75
2023/03/27 10:51:56;;;;;;;1.23;0.43;;;9.50;72.60;;;;;;5072900;28;20050;-76
2023/03/27 10:54:58;;;;;;;2.90;0.50;;;9.20;74.60;;;;;;5073083;28;20029;-75
2023/03/27 10:57:29;;;;;;;1.15;0.22;;;9.00;76.30;;;;;;5072916;28;20068;-75
2023/03/27 11:00:18;;;;;;;1.73;0.35;;;8.80;76.90;;;;;;5071823;28;20025;-75
2023/03/27 11:02:56;;;;;;;0.75;0.28;;;8.80;79.00;;;;;;5072879;28;20029;-75
2023/03/27 11:05:53;;;;;;;1.40;0.30;;;8.80;77.30;;;;;;5072992;28;20025;-75
2023/03/27 11:08:26;;;;;;;1.38;0.28;;;8.70;78.20;;;;;;5074385;28;20033;-75
2023/03/27 11:10:56;;;;;;;2.08;0.32;;;8.80;78.40;;;;;;5075654;28;20028;-75
2023/03/27 11:13:27;;;;;;;2.15;0.30;;;8.80;77.40;;;;;;5075687;28;20017;-75
2023/03/27 11:15:58;;;;;;;1.17;0.55;;;8.80;77.30;;;;;;5075585;28;20048;-75
2023/03/27 11:18:32;;;;;;;3.13;0.40;;;9.00;78.20;;;;;;5076650;28;20032;-75
2023/03/27 11:21:11;;;;;;;0.22;0.20;;;9.00;76.20;;;;;;5076433;28;20028;-76
2023/03/27 11:23:49;;;;;;;1.55;0.38;;;9.00;75.60;;;;;;5076416;28;20085;-75
2023/03/27 11:26:17;;;;;;;1.92;0.38;;;9.00;76.80;;;;;;5076467;28;20075;-75
2023/03/27 11:29:08;;;;;;;1.58;0.65;;;9.20;76.40;;;;;;5076318;28;20017;-75
2023/03/27 11:31:45;;;;;;;2.50;0.20;;;9.30;75.80;;;;;;5076314;28;20089;-75
2023/03/27 11:34:38;;;;;;;0.95;0.40;;;9.50;75.60;;;;;;5076262;28;20021;-75
2023/03/27 11:37:19;;;;;;;2.17;0.43;;;9.60;73.20;;;;;;5075001;28;20041;-75
2023/03/27 11:39:47;;;;;;;1.50;0.30;;;9.80;70.30;;;;;;5075029;28;20029;-76
2023/03/27 11:42:30;;;;;;;1.15;0.10;;;9.80;71.60;;;;;;5074969;28;20037;-75
2023/03/27 11:44:55;;;;;;;1.88;0.50;;;9.80;70.10;;;;;;5076157;28;20025;-75
2023/03/27 11:47:48;;;;;;;0.50;0.15;;;9.90;67.30;;;;;;5075948;28;20036;-75
2023/03/27 11:50:46;;;;;;;0.43;0.25;;;10.00;68.30;;;;;;5075958;28;20386;-75
2023/03/27 11:53:30;;;;;;;0.70;0.20;;;10.20;69.40;;;;;;5075914;28;20066;-75
2023/03/27 11:56:10;;;;;;;0.88;0.20;;;10.30;67.00;;;;;;5075783;28;20032;-75
2023/03/27 11:58:40;;;;;;;1.35;0.40;;;10.40;67.80;;;;;;5075797;28;20025;-75
2023/03/27 12:01:20;;;;;;;1.52;0.50;;;10.40;66.40;;;;;;5075627;28;20053;-75
2023/03/27 12:04:08;;;;;;;3.00;0.70;;;10.40;67.50;;;;;;5075638;28;20036;-75
2023/03/27 12:06:49;;;;;;;4.40;0.60;;;10.50;68.40;;;;;;5075596;28;20024;-75
2023/03/27 12:09:27;;;;;;;2.33;0.70;;;10.80;68.20;;;;;;5074631;28;20021;-75
2023/03/27 12:12:11;;;;;;;4.72;0.70;;;10.90;68.70;;;;;;5075671;28;20485;-75
2023/03/27 12:14:58;;;;;;;4.30;0.65;;;11.00;69.00;;;;;;5075539;28;20044;-75
2023/03/27 12:17:41;;;;;;;2.10;0.50;;;11.00;69.70;;;;;;5074256;28;20032;-75
2023/03/27 12:20:48;;;;;;;1.48;0.55;;;11.00;69.80;;;;;;5074358;28;20088;-75
2023/03/27 12:23:56;;;;;;;2.17;0.60;;;10.80;70.10;;;;;;5074960;28;20043;-75
2023/03/27 12:26:32;;;;;;;2.55;0.50;;;10.60;71.30;;;;;;5075192;28;20052;-75
2023/03/27 12:29:22;;;;;;;1.40;0.77;;;10.40;72.70;;;;;;5075325;28;20021;-75
2023/03/27 12:32:20;;;;;;;2.58;0.70;;;10.30;73.50;;;;;;5075176;28;20017;-76
2023/03/27 12:34:53;;;;;;;4.10;0.98;;;10.20;74.80;;;;;;5067484;28;20062;-75
2023/03/27 12:37:23;;;;;;;2.25;0.90;;;10.20;75.80;;;;;;5074583;28;20033;-76
2023/03/27 12:39:57;;;;;;;1.98;0.60;;;10.20;76.30;;;;;;5075012;28;20033;-76
2023/03/27 12:43:25;;;;;;;4.53;0.70;;;10.20;76.00;;;;;;5074913;28;20517;-75
2023/03/27 12:46:14;;;;;;;3.88;0.85;;;10.10;76.10;;;;;;4991313;28;20034;-76
2023/03/27 12:48:49;;;;;;;2.58;1.08;;;10.30;77.50;;;;;;5074841;28;20041;-75
2023/03/27 12:51:18;;;;;;;1.25;0.70;;;10.40;76.70;;;;;;5074737;28;20053;-76
2023/03/27 12:54:13;;;;;;;5.30;0.90;;;10.40;76.60;;;;;;5073814;28;20029;-76
2023/03/27 12:56:39;;;;;;;3.17;0.90;;;10.60;77.10;;;;;;5067220;28;20064;-75
2023/03/27 12:59:17;;;;;;;5.78;1.17;;;10.60;75.60;;;;;;5073644;28;20105;-76
2023/03/27 13:01:43;;;;;;;4.03;1.00;;;10.60;75.60;;;;;;5073486;28;20048;-75
2023/03/27 13:04:18;;;;;;;1.60;0.75;;;10.60;75.30;;;;;;5074456;28;20029;-76
2023/03/27 13:06:54;;;;;;;2.97;0.70;;;10.40;74.30;;;;;;5073446;28;20046;-75
2023/03/27 13:09:58;;;;;;;3.15;0.85;;;10.30;75.20;;;;;;5074442;28;20028;-76
2023/03/27 13:12:35;;;;;;;3.20;0.93;;;10.40;76.40;;;;;;5073302;28;20025;-75
2023/03/27 13:15:34;;;;;;;1.65;0.52;;;10.60;75.80;;;;;;5073377;28;20033;-75
2023/03/27 13:18:26;;;;;;;3.00;0.57;;;10.70;74.40;;;;;;5074271;28;20033;-76
2023/03/27 13:21:04;;;;;;;1.00;0.50;;;10.90;71.70;;;;;;5074305;28;20043;-76
2023/03/27 13:24:08;;;;;;;2.63;0.88;;;11.10;69.90;;;;;;5074099;28;20099;-75
2023/03/27 13:27:05;;;;;;;1.92;0.40;;;11.20;69.30;;;;;;4993287;28;20031;-75
2023/03/27 13:29:33;;;;;;;1.80;0.55;;;11.30;69.00;;;;;;4976494;28;20023;-75